createdAt,value
2023-03-25T00:00:26.365Z,1545.80
2023-03-25T00:02:53.173Z,1161.68
2023-03-25T00:05:20.661Z,1323.28
2023-03-25T00:07:49.682Z,1255.88
2023-03-25T00:10:16.601Z,1257.13
2023-03-25T00:12:43.300Z,1149.47
2023-03-25T00:15:10.871Z,1201.90
2023-03-25T00:17:38.548Z,1140.65
2023-03-25T00:20:08.991Z,1173.22
2023-03-25T00:22:40.844Z,1159.90
2023-03-25T00:25:12.101Z,1120.00
2023-03-25T00:27:38.803Z,1119.80
2023-03-25T00:30:06.568Z,1172.10
2023-03-25T00:32:33.328Z,1123.40
2023-03-25T00:35:00.048Z,1114.35
2023-03-25T00:37:27.184Z,1042.40
2023-03-25T00:39:53.895Z,1116.20
2023-03-25T00:42:26.208Z,1146.35
2023-03-25T00:44:53.711Z,1109.68
2023-03-25T00:47:21.858Z,1073.07
2023-03-25T00:49:49.377Z,1170.20
2023-03-25T00:52:16.143Z,1100.82
2023-03-25T00:54:43.285Z,1070.80
2023-03-25T00:57:09.994Z,1027.75
2023-03-25T00:59:36.835Z,1036.38
2023-03-25T01:02:03.743Z,1059.90
2023-03-25T01:04:30.486Z,1048.20
2023-03-25T01:06:57.282Z,1045.13
2023-03-25T01:09:23.962Z,1062.28
2023-03-25T01:11:50.773Z,1066.53
2023-03-25T01:14:19.779Z,1031.22
2023-03-25T01:16:46.619Z,991.35
2023-03-25T01:19:13.742Z,1045.82
2023-03-25T01:21:40.647Z,1041.68
2023-03-25T01:24:08.032Z,1000.50
2023-03-25T01:26:34.789Z,1062.68
2023-03-25T01:29:01.561Z,1056.18
2023-03-25T01:31:30.136Z,966.78
2023-03-25T01:33:57.724Z,972.80
2023-03-25T01:36:25.181Z,976.60
2023-03-25T01:38:52.057Z,1029.07
2023-03-25T01:41:18.777Z,988.65
2023-03-25T01:44:07.982Z,1012.88
2023-03-25T01:46:35.658Z,1014.90
2023-03-25T01:49:04.033Z,1064.63
2023-03-25T01:51:35.255Z,1040.00
2023-03-25T01:54:01.928Z,1107.68
2023-03-25T01:56:33.826Z,1083.20
2023-03-25T01:59:03.036Z,1048.82
2023-03-25T02:01:31.368Z,1094.32
2023-03-25T02:04:03.206Z,1086.30
2023-03-25T02:06:46.292Z,1091.70
2023-03-25T02:09:14.978Z,1088.95
2023-03-25T02:11:41.728Z,1122.13
2023-03-25T02:14:19.621Z,1073.75
2023-03-25T02:16:55.302Z,1093.70
2023-03-25T02:19:42.687Z,1073.28
2023-03-25T02:22:14.670Z,1129.00
2023-03-25T02:24:54.054Z,1132.20
2023-03-25T02:27:33.967Z,1167.80
2023-03-25T02:30:18.961Z,1141.85
2023-03-25T02:32:51.700Z,1157.18
2023-03-25T02:35:58.930Z,1159.50
2023-03-25T02:38:28.480Z,1260.85
2023-03-25T02:41:14.410Z,1268.05
2023-03-25T02:43:53.100Z,1236.78
2023-03-25T02:46:20.927Z,1294.60
2023-03-25T02:49:02.732Z,1237.70
2023-03-25T02:51:31.715Z,1299.97
2023-03-25T02:54:03.069Z,1302.80
2023-03-25T02:56:32.789Z,1303.20
2023-03-25T02:58:59.647Z,1293.18
2023-03-25T03:01:26.825Z,1334.90
2023-03-25T03:03:54.739Z,1366.50
2023-03-25T03:06:21.807Z,1286.93
2023-03-25T03:08:51.302Z,1335.55
2023-03-25T03:11:21.607Z,1370.63
2023-03-25T03:13:51.580Z,1440.75
2023-03-25T03:16:24.900Z,1396.85
2023-03-25T03:18:59.074Z,1441.82
2023-03-25T03:21:46.318Z,1418.63
2023-03-25T03:24:22.688Z,1487.45
2023-03-25T03:27:04.394Z,1483.00
2023-03-25T03:29:39.803Z,1524.78
2023-03-25T03:32:13.205Z,1535.78
2023-03-25T03:34:48.480Z,1495.03
2023-03-25T03:37:27.270Z,1503.38
2023-03-25T03:39:54.445Z,1474.78
2023-03-25T03:42:35.527Z,1654.53
2023-03-25T03:45:19.741Z,1642.68
2023-03-25T03:47:52.255Z,1710.70
2023-03-25T03:50:21.864Z,1700.20
2023-03-25T03:53:23.763Z,1640.93
2023-03-25T03:55:55.248Z,1664.00
2023-03-25T03:58:25.387Z,1770.20
2023-03-25T04:00:57.639Z,1660.13
2023-03-25T04:03:50.772Z,1597.20
2023-03-25T04:06:41.619Z,1632.40
2023-03-25T04:09:27.386Z,1565.22
2023-03-25T04:11:56.197Z,1577.43
2023-03-25T04:14:22.916Z,1514.82
2023-03-25T04:16:49.643Z,1483.07
2023-03-25T04:19:18.981Z,1469.10
2023-03-25T04:21:47.928Z,1450.20
2023-03-25T04:24:16.668Z,1414.45
2023-03-25T04:26:43.652Z,1367.60
2023-03-25T04:29:10.381Z,1396.50
2023-03-25T04:31:37.825Z,1356.90
2023-03-25T04:34:04.732Z,1282.53
2023-03-25T04:36:37.638Z,1294.53
2023-03-25T04:39:05.001Z,1294.68
2023-03-25T04:41:33.607Z,1229.60
2023-03-25T04:44:00.471Z,1242.65
2023-03-25T04:46:27.230Z,1208.78
2023-03-25T04:48:56.878Z,1193.60
2023-03-25T04:51:23.759Z,1154.95
2023-03-25T04:53:50.495Z,1152.45
2023-03-25T04:56:17.857Z,1111.72
2023-03-25T04:58:45.535Z,1111.00
2023-03-25T05:01:32.822Z,1083.55
2023-03-25T05:04:06.891Z,1085.82
2023-03-25T05:06:34.269Z,1035.68
2023-03-25T05:09:04.661Z,1046.47
2023-03-25T05:11:32.152Z,1007.13
2023-03-25T05:13:58.840Z,989.67
2023-03-25T05:16:26.789Z,989.72
2023-03-25T05:18:53.576Z,975.20
2023-03-25T05:21:20.380Z,967.88
2023-03-25T05:23:47.234Z,941.70
2023-03-25T05:26:13.894Z,922.25
2023-03-25T05:28:40.811Z,894.25
2023-03-25T05:31:10.658Z,904.40
2023-03-25T05:33:43.326Z,857.58
2023-03-25T05:36:11.298Z,865.00
2023-03-25T05:38:41.639Z,840.53
2023-03-25T05:41:16.814Z,819.83
2023-03-25T05:43:47.545Z,813.85
2023-03-25T05:46:15.455Z,805.65
2023-03-25T05:48:42.881Z,793.35
2023-03-25T05:51:15.646Z,785.80
2023-03-25T05:53:49.944Z,776.83
2023-03-25T05:56:21.016Z,769.17
2023-03-25T05:58:48.378Z,758.15
2023-03-25T06:01:31.112Z,736.03
2023-03-25T06:04:01.681Z,724.38
2023-03-25T06:06:29.346Z,709.13
2023-03-25T06:08:56.088Z,699.78
2023-03-25T06:11:22.758Z,683.83
2023-03-25T06:13:52.537Z,681.45
2023-03-25T06:16:27.540Z,660.92
2023-03-25T06:18:56.560Z,640.30
2023-03-25T06:21:23.794Z,649.67
2023-03-25T06:23:50.623Z,630.33
2023-03-25T06:26:17.713Z,616.20
2023-03-25T06:28:44.654Z,624.03
2023-03-25T06:31:16.980Z,597.83
2023-03-25T06:33:44.653Z,592.70
2023-03-25T06:36:20.804Z,585.55
2023-03-25T06:38:48.680Z,572.83
2023-03-25T06:41:17.636Z,554.65
2023-03-25T06:43:44.412Z,536.08
2023-03-25T06:46:11.130Z,535.75
2023-03-25T06:48:37.865Z,502.83
2023-03-25T06:51:04.916Z,519.63
2023-03-25T06:53:32.976Z,524.15
2023-03-25T06:55:59.833Z,517.50
2023-03-25T06:58:34.575Z,500.95
2023-03-25T07:01:05.997Z,487.30
2023-03-25T07:03:33.610Z,480.33
2023-03-25T07:06:00.337Z,472.55
2023-03-25T07:08:27.101Z,473.88
2023-03-25T07:10:53.897Z,423.42
2023-03-25T07:13:20.858Z,450.75
2023-03-25T07:15:47.770Z,424.15
2023-03-25T07:18:14.517Z,408.85
2023-03-25T07:20:45.919Z,378.17
2023-03-25T07:23:13.497Z,356.57
2023-03-25T07:25:40.508Z,353.25
2023-03-25T07:28:07.342Z,362.42
2023-03-25T07:30:34.147Z,347.55
2023-03-25T07:33:01.273Z,311.33
2023-03-25T07:35:28.080Z,309.15
2023-03-25T07:37:54.917Z,317.85
2023-03-25T07:40:21.689Z,300.45
2023-03-25T07:42:48.558Z,254.82
2023-03-25T07:45:15.807Z,257.30
2023-03-25T07:47:42.663Z,257.92
2023-03-25T07:50:09.809Z,254.55
2023-03-25T07:52:36.545Z,244.95
2023-03-25T07:55:03.404Z,236.48
2023-03-25T07:57:30.230Z,229.48
2023-03-25T07:59:57.014Z,225.57
2023-03-25T08:02:23.793Z,204.77
2023-03-25T08:04:50.590Z,209.30
2023-03-25T08:07:17.357Z,193.88
2023-03-25T08:09:44.115Z,187.73
2023-03-25T08:12:11.166Z,177.93
2023-03-25T08:14:37.946Z,171.20
2023-03-25T08:17:07.543Z,179.52
2023-03-25T08:19:34.330Z,171.68
2023-03-25T08:22:01.873Z,162.35
2023-03-25T08:24:30.103Z,160.95
2023-03-25T08:26:56.911Z,144.63
2023-03-25T08:29:24.744Z,143.23
2023-03-25T08:31:52.343Z,122.47
2023-03-25T08:34:20.450Z,132.98
2023-03-25T08:36:47.237Z,115.82
2023-03-25T08:39:17.102Z,119.78
2023-03-25T08:41:44.676Z,127.60
2023-03-25T08:44:11.710Z,124.22
2023-03-25T08:46:38.772Z,116.05
2023-03-25T08:49:06.722Z,110.18
2023-03-25T08:51:33.506Z,117.93
2023-03-25T08:54:01.114Z,107.32
2023-03-25T08:56:28.586Z,107.25
2023-03-25T08:58:55.639Z,106.05
2023-03-25T09:01:24.449Z,109.32
2023-03-25T09:03:51.405Z,103.68
2023-03-25T09:06:18.275Z,100.07
2023-03-25T09:08:45.131Z,91.47
2023-03-25T09:11:24.245Z,87.00
2023-03-25T09:13:57.203Z,95.97
2023-03-25T09:16:24.057Z,88.90
2023-03-25T09:18:50.930Z,89.80
2023-03-25T09:21:17.744Z,82.25
2023-03-25T09:23:44.581Z,78.47
2023-03-25T09:26:12.171Z,74.68
2023-03-25T09:28:38.956Z,80.95
2023-03-25T09:31:06.050Z,74.18
2023-03-25T09:33:36.031Z,73.30
2023-03-25T09:36:03.712Z,71.55
2023-03-25T09:38:30.611Z,67.10
2023-03-25T09:40:57.426Z,79.70
2023-03-25T09:43:35.876Z,71.13
2023-03-25T09:46:02.725Z,65.43
2023-03-25T09:48:38.214Z,62.30
2023-03-25T09:51:13.096Z,64.43
2023-03-25T09:53:49.824Z,62.17
2023-03-25T09:56:24.694Z,64.88
2023-03-25T09:58:56.726Z,59.72
2023-03-25T10:01:46.326Z,54.08
2023-03-25T10:04:44.045Z,59.95
2023-03-25T10:07:16.477Z,51.45
2023-03-25T10:09:55.194Z,52.92
2023-03-25T10:12:21.802Z,59.55
2023-03-25T10:15:15.533Z,51.97
2023-03-25T10:18:16.949Z,54.78
2023-03-25T10:20:55.840Z,50.90
2023-03-25T10:23:31.973Z,44.67
2023-03-25T10:26:10.880Z,40.63
2023-03-25T10:28:43.487Z,44.70
2023-03-25T10:31:14.521Z,38.42
2023-03-25T10:33:43.127Z,44.20
2023-03-25T10:36:14.432Z,44.38
2023-03-25T10:38:41.944Z,43.13
2023-03-25T10:41:30.848Z,40.90
2023-03-25T10:43:57.524Z,38.33
2023-03-25T10:46:49.832Z,38.08
2023-03-25T10:49:22.011Z,37.87
2023-03-25T10:51:51.293Z,36.80
2023-03-25T10:54:17.964Z,31.30
2023-03-25T10:56:46.916Z,34.30
2023-03-25T10:59:36.087Z,35.00
2023-03-25T11:02:14.230Z,34.08
2023-03-25T11:04:42.467Z,31.00
2023-03-25T11:07:20.788Z,31.38
2023-03-25T11:09:47.458Z,32.00
2023-03-25T11:12:14.460Z,32.80
2023-03-25T11:14:41.159Z,31.48
2023-03-25T11:17:12.136Z,31.42
2023-03-25T11:19:52.868Z,28.95
2023-03-25T11:22:25.067Z,27.15
2023-03-25T11:24:54.586Z,26.17
2023-03-25T11:27:26.429Z,27.10
2023-03-25T11:29:54.500Z,27.77
2023-03-25T11:32:31.951Z,23.65
2023-03-25T11:35:01.209Z,27.63
2023-03-25T11:37:28.407Z,25.75
2023-03-25T11:39:55.896Z,24.15
2023-03-25T11:42:33.085Z,26.63
2023-03-25T11:45:00.911Z,23.88
2023-03-25T11:47:31.549Z,23.40
2023-03-25T11:49:58.335Z,24.35
2023-03-25T11:52:32.288Z,24.92
2023-03-25T11:54:59.887Z,22.55
2023-03-25T11:57:29.624Z,22.48
2023-03-25T12:00:12.217Z,22.85
2023-03-25T12:02:40.085Z,25.63
2023-03-25T12:05:12.757Z,21.05
2023-03-25T12:07:50.065Z,22.52
2023-03-25T12:10:24.484Z,22.23
2023-03-25T12:13:00.240Z,20.55
2023-03-25T12:15:35.735Z,20.13
2023-03-25T12:18:23.276Z,17.75
2023-03-25T12:21:12.292Z,17.55
2023-03-25T12:23:49.154Z,23.52
2023-03-25T12:26:48.596Z,17.33
2023-03-25T12:29:35.151Z,19.83
2023-03-25T12:32:17.013Z,19.23
2023-03-25T12:34:53.325Z,17.05
2023-03-25T12:37:26.360Z,18.38
2023-03-25T12:42:38.635Z,18.02
2023-03-25T12:45:29.788Z,17.10
2023-03-25T12:48:06.583Z,18.35
2023-03-25T12:51:08.604Z,17.75
2023-03-25T12:53:50.227Z,14.10
2023-03-25T12:56:25.944Z,16.88
2023-03-25T12:59:22.544Z,15.07
2023-03-25T13:02:20.661Z,18.35
2023-03-25T13:05:02.851Z,16.70
2023-03-25T13:07:36.682Z,15.02
2023-03-25T13:10:18.503Z,13.85
2023-03-25T13:12:53.743Z,13.38
2023-03-25T13:15:27.239Z,13.77
2023-03-25T13:18:04.215Z,13.50
2023-03-25T13:20:32.379Z,12.40
2023-03-25T13:23:04.027Z,13.27
2023-03-25T13:25:42.913Z,16.27
2023-03-25T13:28:12.888Z,13.43
2023-03-25T13:30:41.579Z,13.30
2023-03-25T13:33:15.676Z,14.57
2023-03-25T13:35:47.571Z,13.10
2023-03-25T13:38:25.992Z,13.35
2023-03-25T13:41:08.012Z,14.90
2023-03-25T13:43:47.041Z,17.02
2023-03-25T13:46:16.313Z,14.90
2023-03-25T13:48:51.041Z,11.95
2023-03-25T13:51:17.696Z,13.55
2023-03-25T13:53:47.426Z,14.18
2023-03-25T13:56:14.098Z,12.93
2023-03-25T13:58:40.868Z,12.82
2023-03-25T14:01:20.872Z,12.80
2023-03-25T14:04:29.841Z,15.05
2023-03-25T14:06:59.535Z,13.88
2023-03-25T14:09:43.098Z,14.65
2023-03-25T14:12:29.491Z,12.88
2023-03-25T14:15:32.995Z,12.70
2023-03-25T14:18:00.467Z,10.88
2023-03-25T14:20:34.551Z,13.23
2023-03-25T14:23:09.268Z,12.05
2023-03-25T14:25:44.417Z,11.48
2023-03-25T14:28:15.622Z,9.98
2023-03-25T14:30:43.176Z,12.10
2023-03-25T14:33:12.968Z,12.38
2023-03-25T14:35:41.342Z,8.85
2023-03-25T14:38:08.354Z,9.65
2023-03-25T14:40:58.935Z,10.13
2023-03-25T14:43:38.404Z,12.02
2023-03-25T14:46:11.171Z,12.32
2023-03-25T14:49:02.092Z,11.30
2023-03-25T14:51:28.776Z,12.90
2023-03-25T14:54:29.619Z,10.02
2023-03-25T14:57:17.703Z,6.97
2023-03-25T15:00:15.969Z,11.02
2023-03-25T15:02:42.981Z,9.25
2023-03-25T15:05:09.712Z,10.75
2023-03-25T15:07:44.495Z,11.40
2023-03-25T15:10:34.450Z,9.15
2023-03-25T15:13:24.535Z,11.07
2023-03-25T15:15:52.209Z,12.60
2023-03-25T15:18:37.410Z,9.32
2023-03-25T15:21:04.749Z,11.15
2023-03-25T15:23:46.281Z,11.57
2023-03-25T15:26:37.954Z,9.20
2023-03-25T15:29:31.471Z,10.48
2023-03-25T15:35:08.215Z,8.85
2023-03-25T15:37:53.158Z,9.57
2023-03-25T15:40:58.037Z,11.68
2023-03-25T15:43:59.446Z,13.18
2023-03-25T15:46:51.257Z,12.02
2023-03-25T15:49:32.416Z,18.10
2023-03-25T15:52:23.665Z,13.13
2023-03-25T15:55:00.789Z,15.30
2023-03-25T15:57:35.058Z,11.73
2023-03-25T16:00:22.819Z,13.15
2023-03-25T16:03:03.561Z,13.63
2023-03-25T16:05:30.787Z,12.13
2023-03-25T16:07:59.856Z,11.07
2023-03-25T16:10:36.314Z,13.02
2023-03-25T16:13:09.287Z,11.50
2023-03-25T16:15:36.139Z,12.48
2023-03-25T16:18:05.034Z,13.23
2023-03-25T16:20:33.645Z,10.95
2023-03-25T16:23:00.878Z,12.73
2023-03-25T16:25:37.757Z,11.90
2023-03-25T16:28:06.434Z,13.85
2023-03-25T16:30:38.230Z,10.43
2023-03-25T16:33:11.050Z,11.68
2023-03-25T16:35:42.397Z,8.70
2023-03-25T16:38:13.162Z,11.95
2023-03-25T16:40:40.644Z,9.70
2023-03-25T16:43:13.070Z,12.00
2023-03-25T16:45:39.754Z,9.68
2023-03-25T16:48:08.901Z,10.75
2023-03-25T16:50:36.201Z,14.95
2023-03-25T16:53:03.014Z,12.73
2023-03-25T16:56:01.853Z,17.75
2023-03-25T16:58:28.500Z,12.90
2023-03-25T17:00:55.614Z,11.82
2023-03-25T17:03:46.619Z,12.40
2023-03-25T17:06:26.101Z,13.55
2023-03-25T17:08:53.657Z,13.05
2023-03-25T17:11:20.530Z,15.38
2023-03-25T17:13:52.219Z,13.48
2023-03-25T17:16:19.474Z,12.23
2023-03-25T17:18:47.974Z,14.73
2023-03-25T17:21:22.322Z,13.55
2023-03-25T17:23:49.033Z,14.32
2023-03-25T17:26:19.977Z,13.90
2023-03-25T17:28:59.765Z,13.50
2023-03-25T17:31:37.879Z,13.25
2023-03-25T17:34:18.845Z,16.35
2023-03-25T17:36:47.730Z,14.32
2023-03-25T17:39:24.843Z,12.95
2023-03-25T17:42:00.563Z,15.10
2023-03-25T17:44:35.952Z,12.73
2023-03-25T17:47:02.871Z,13.38
2023-03-25T17:49:29.801Z,14.77
2023-03-25T17:51:58.083Z,14.55
2023-03-25T17:54:25.444Z,15.52
2023-03-25T17:56:52.617Z,13.25
2023-03-25T17:59:20.972Z,13.35
2023-03-25T18:01:50.000Z,10.02
2023-03-25T18:04:17.467Z,14.55
2023-03-25T18:06:44.401Z,17.70
2023-03-25T18:09:22.093Z,16.58
2023-03-25T18:11:52.605Z,17.58
2023-03-25T18:14:20.296Z,13.93
2023-03-25T18:16:47.022Z,14.18
2023-03-25T18:19:32.136Z,13.20
2023-03-25T18:22:06.879Z,14.43
2023-03-25T18:24:40.839Z,14.52
2023-03-25T18:27:09.524Z,13.35
2023-03-25T18:29:38.280Z,16.13
2023-03-25T18:32:05.205Z,13.50
2023-03-25T18:34:33.141Z,15.18
2023-03-25T18:36:59.843Z,15.55
2023-03-25T18:39:26.845Z,15.93
2023-03-25T18:41:53.489Z,12.30
2023-03-25T18:44:20.318Z,11.98
2023-03-25T18:46:47.119Z,11.45
2023-03-25T18:49:18.695Z,12.73
2023-03-25T18:51:48.187Z,16.15
2023-03-25T18:54:14.981Z,13.23
2023-03-25T18:56:42.199Z,14.77
2023-03-25T18:59:16.512Z,13.90
2023-03-25T19:01:43.430Z,15.55
2023-03-25T19:04:10.228Z,11.95
2023-03-25T19:06:39.183Z,13.43
2023-03-25T19:09:08.924Z,12.95
2023-03-25T19:11:36.325Z,12.38
2023-03-25T19:14:03.108Z,14.95
2023-03-25T19:16:30.000Z,13.27
2023-03-25T19:18:56.711Z,13.18
2023-03-25T19:21:23.353Z,12.27
2023-03-25T19:23:51.767Z,12.35
2023-03-25T19:26:18.463Z,11.23
2023-03-25T19:28:45.417Z,12.80
2023-03-25T19:31:15.535Z,11.40
2023-03-25T19:33:42.476Z,13.13
2023-03-25T19:36:12.467Z,12.73
2023-03-25T19:38:39.609Z,11.23
2023-03-25T19:41:08.394Z,9.15
2023-03-25T19:43:35.412Z,12.48
2023-03-25T19:46:02.334Z,9.10
2023-03-25T19:48:29.939Z,8.98
2023-03-25T19:50:57.198Z,11.43
2023-03-25T19:53:24.212Z,11.00
2023-03-25T19:55:51.770Z,8.88
2023-03-25T19:58:20.273Z,9.30
2023-03-25T20:00:47.463Z,11.13
2023-03-25T20:03:14.390Z,11.30
2023-03-25T20:05:41.637Z,11.95
2023-03-25T20:08:09.381Z,32.33
2023-03-25T20:10:37.825Z,29.33
2023-03-25T20:13:04.482Z,27.20
2023-03-25T20:15:31.243Z,25.15
2023-03-25T20:17:58.015Z,27.23
2023-03-25T20:20:24.945Z,26.48
2023-03-25T20:22:51.942Z,28.98
2023-03-25T20:25:18.813Z,27.08
2023-03-25T20:27:45.769Z,26.50
2023-03-25T20:30:14.569Z,27.10
2023-03-25T20:32:43.192Z,29.90
2023-03-25T20:35:13.024Z,26.30
2023-03-25T20:37:41.067Z,23.40
2023-03-25T20:40:11.543Z,20.38
2023-03-25T20:42:42.392Z,20.67
2023-03-25T20:45:10.941Z,19.98
2023-03-25T20:47:37.706Z,24.67
2023-03-25T20:50:05.108Z,93.97
2023-03-25T20:52:31.843Z,445.92
2023-03-25T20:54:58.571Z,207.00
2023-03-25T20:57:25.245Z,39.78
2023-03-25T20:59:56.425Z,52.35
2023-03-25T21:02:23.222Z,74.25
2023-03-25T21:04:50.028Z,78.18
2023-03-25T21:07:19.407Z,115.03
2023-03-25T21:09:47.696Z,150.80
2023-03-25T21:12:14.545Z,163.07
2023-03-25T21:14:41.377Z,251.77
2023-03-25T21:17:08.010Z,222.85
2023-03-25T21:19:34.810Z,210.57
2023-03-25T21:22:01.654Z,237.63
2023-03-25T21:24:28.386Z,251.85
2023-03-25T21:26:55.028Z,324.25
2023-03-25T21:29:21.842Z,359.48
2023-03-25T21:31:48.587Z,404.92
2023-03-25T21:34:15.861Z,396.35
2023-03-25T21:36:43.285Z,503.80
2023-03-25T21:39:10.159Z,463.95
2023-03-25T21:41:36.864Z,508.23
2023-03-25T21:44:05.070Z,474.80
2023-03-25T21:46:33.395Z,552.92
2023-03-25T21:49:01.298Z,601.65
2023-03-25T21:51:32.261Z,702.20
2023-03-25T21:54:00.415Z,664.50
2023-03-25T21:56:30.362Z,717.97
2023-03-25T21:58:57.545Z,692.15
2023-03-25T22:01:28.464Z,767.72
2023-03-25T22:03:59.884Z,839.90
2023-03-25T22:06:28.274Z,833.55
2023-03-25T22:08:57.101Z,857.53
2023-03-25T22:11:25.707Z,850.78
2023-03-25T22:13:52.400Z,880.55
2023-03-25T22:16:20.100Z,862.38
2023-03-25T22:18:47.177Z,887.83
2023-03-25T22:21:20.921Z,867.75
2023-03-25T22:23:48.481Z,881.63
2023-03-25T22:26:16.204Z,878.40
2023-03-25T22:28:43.089Z,849.78
2023-03-25T22:31:16.952Z,855.47
2023-03-25T22:33:43.615Z,902.70
2023-03-25T22:36:12.139Z,908.95
2023-03-25T22:38:44.441Z,922.15
2023-03-25T22:41:12.262Z,967.30
2023-03-25T22:43:38.957Z,973.45
2023-03-25T22:46:06.166Z,999.67
2023-03-25T22:48:32.970Z,1007.22
2023-03-25T22:50:59.653Z,1007.10
2023-03-25T22:53:26.606Z,1029.57
2023-03-25T22:55:55.652Z,1043.57
2023-03-25T22:58:23.743Z,1072.10
2023-03-25T23:00:50.442Z,1068.25
2023-03-25T23:03:17.339Z,1104.40
2023-03-25T23:05:55.620Z,1123.68
2023-03-25T23:08:25.795Z,1159.65
2023-03-25T23:10:52.810Z,1212.65
2023-03-25T23:13:19.498Z,1168.35
2023-03-25T23:15:46.248Z,1214.45
2023-03-25T23:18:12.925Z,1169.47
2023-03-25T23:20:39.696Z,1193.35
2023-03-25T23:23:06.364Z,1180.70
2023-03-25T23:25:33.024Z,1175.90
2023-03-25T23:27:59.673Z,1303.93
2023-03-25T23:30:26.425Z,1198.95
2023-03-25T23:32:53.204Z,1174.25
2023-03-25T23:35:21.270Z,1193.07
2023-03-25T23:37:50.213Z,1216.43
2023-03-25T23:40:17.128Z,1212.93
2023-03-25T23:42:43.793Z,1248.18
2023-03-25T23:45:10.966Z,1204.78
2023-03-25T23:47:37.739Z,1225.45
2023-03-25T23:50:04.795Z,1234.85
2023-03-25T23:52:33.497Z,1207.07
2023-03-25T23:55:00.489Z,1230.13
2023-03-25T23:57:27.304Z,1216.20
2023-03-25T23:59:54.041Z,1204.13
